Terminal Aerodrome Forecast
Issued by NWS Spokane, WA

Home | Current Version | Previous Version | Text Only | Print | Product List | Glossary On
Versions: 1 2 3 4 5 6 7 8 9 10 11 12 13 14
000
FTUS46 KOTX 262332
TAFEAT
TAF
KEAT 262332Z 2700/2724 31015G22KT P6SM SCT100 BKN130 BKN200
     FM270200 31023G30KT P6SM SCT100 BKN130 BKN200
     FM270700 30014G20KT P6SM FEW250=

USA.gov is the U.S. government's official web portal to all federal, state and local government web resources and services.